createdAt,value
2022-08-20T00:01:48.158Z,95463.31
2022-08-20T00:04:16.939Z,95460.94
2022-08-20T00:06:45.382Z,95457.78
2022-08-20T00:09:13.389Z,95457.22
2022-08-20T00:11:42.710Z,95459.34
2022-08-20T00:14:10.829Z,95456.97
2022-08-20T00:16:39.029Z,95456.16
2022-08-20T00:19:09.405Z,95449.00
2022-08-20T00:21:38.112Z,95436.06
2022-08-20T00:24:06.509Z,95431.84
2022-08-20T00:26:34.558Z,95431.84
2022-08-20T00:29:06.166Z,95441.88
2022-08-20T00:31:34.173Z,95433.94
2022-08-20T00:34:02.332Z,95440.31
2022-08-20T00:36:33.008Z,95440.84
2022-08-20T00:39:01.965Z,95440.34
2022-08-20T00:41:31.015Z,95438.53
2022-08-20T00:44:10.636Z,95441.94
2022-08-20T00:46:39.691Z,95444.59
2022-08-20T00:49:09.869Z,95439.28
2022-08-20T00:51:43.511Z,95433.47
2022-08-20T00:54:17.236Z,95415.47
2022-08-20T00:56:52.689Z,95420.75
2022-08-20T00:59:26.755Z,95418.91
2022-08-20T01:01:56.573Z,95412.84
2022-08-20T01:04:26.852Z,95412.84
2022-08-20T01:06:55.032Z,95421.84
2022-08-20T01:09:50.158Z,95422.34
2022-08-20T01:12:11.691Z,95426.56
2022-08-20T01:14:45.938Z,95433.44
2022-08-20T01:17:18.641Z,95427.13
2022-08-20T01:19:52.686Z,95429.50
2022-08-20T01:22:46.210Z,95432.94
2022-08-20T01:25:20.528Z,95434.50
2022-08-20T01:27:55.130Z,95435.06
2022-08-20T01:30:24.734Z,95439.81
2022-08-20T01:32:52.680Z,95451.47
2022-08-20T01:35:22.610Z,95443.53
2022-08-20T01:37:50.637Z,95436.66
2022-08-20T01:40:29.008Z,95432.69
2022-08-20T01:42:59.489Z,95433.50
2022-08-20T01:45:30.309Z,95433.50
2022-08-20T01:47:59.140Z,95428.72
2022-08-20T01:50:29.885Z,95427.13
2022-08-20T01:53:04.539Z,95427.13
2022-08-20T01:55:32.831Z,95429.50
2022-08-20T01:58:02.650Z,95416.25
2022-08-20T02:00:32.594Z,95420.75
2022-08-20T02:03:00.627Z,95415.72
2022-08-20T02:05:30.512Z,95420.22
2022-08-20T02:07:58.871Z,95416.53
2022-08-20T02:10:27.110Z,95412.84
2022-08-20T02:13:00.275Z,95421.28
2022-08-20T02:15:34.559Z,95421.31
2022-08-20T02:18:08.212Z,95414.41
2022-08-20T02:20:37.460Z,95415.97
2022-08-20T02:23:07.249Z,95421.81
2022-08-20T02:25:37.687Z,95411.75
2022-08-20T02:28:09.160Z,95424.50
2022-08-20T02:30:41.934Z,95424.50
2022-08-20T02:33:13.145Z,95421.06
2022-08-20T02:35:42.736Z,95421.84
2022-08-20T02:38:10.905Z,95418.66
2022-08-20T02:40:40.072Z,95426.34
2022-08-20T02:43:08.044Z,95414.97
2022-08-20T02:45:40.267Z,95416.56
2022-08-20T02:48:09.606Z,95410.19
2022-08-20T02:50:37.546Z,95413.38
2022-08-20T02:53:05.527Z,95408.63
2022-08-20T02:55:33.485Z,95404.91
2022-08-20T02:58:01.920Z,95402.25
2022-08-20T03:00:38.478Z,95405.41
2022-08-20T03:03:08.233Z,95407.00
2022-08-20T03:05:39.433Z,95408.06
2022-08-20T03:08:09.545Z,95406.47
2022-08-20T03:10:39.101Z,95408.03
2022-08-20T03:13:12.298Z,95413.88
2022-08-20T03:15:42.513Z,95408.63
2022-08-20T03:18:11.263Z,95418.69
2022-08-20T03:20:40.749Z,95412.84
2022-08-20T03:23:09.035Z,95417.88
2022-08-20T03:25:37.381Z,95412.31
2022-08-20T03:28:05.808Z,95413.38
2022-08-20T03:30:34.152Z,95405.97
2022-08-20T03:33:02.518Z,95407.03
2022-08-20T03:35:31.790Z,95411.28
2022-08-20T03:38:01.556Z,95404.41
2022-08-20T03:40:33.448Z,95410.75
2022-08-20T03:43:02.347Z,95405.19
2022-08-20T03:45:32.602Z,95411.25
2022-08-20T03:48:01.724Z,95408.63
2022-08-20T03:50:32.273Z,95412.84
2022-08-20T03:53:02.558Z,95413.91
2022-08-20T03:55:32.312Z,95413.91
2022-08-20T03:58:03.143Z,95413.94
2022-08-20T04:00:34.300Z,95414.44
2022-08-20T04:03:03.688Z,95412.84
2022-08-20T04:05:33.556Z,95408.63
2022-08-20T04:08:04.241Z,95406.50
2022-08-20T04:10:32.411Z,95410.19
2022-08-20T04:13:00.541Z,95408.06
2022-08-20T04:15:29.651Z,95411.25
2022-08-20T04:17:59.788Z,95412.84
2022-08-20T04:20:28.897Z,95421.28
2022-08-20T04:22:59.297Z,95406.22
2022-08-20T04:25:35.884Z,95416.78
2022-08-20T04:28:08.271Z,95409.66
2022-08-20T04:30:36.789Z,95419.19
2022-08-20T04:33:05.104Z,95416.81
2022-08-20T04:35:33.163Z,95419.19
2022-08-20T04:38:03.635Z,95412.84
2022-08-20T04:40:50.628Z,95415.50
2022-08-20T04:43:19.776Z,95418.94
2022-08-20T04:45:48.507Z,95418.94
2022-08-20T04:48:16.595Z,95419.22
2022-08-20T04:50:47.076Z,95422.38
2022-08-20T04:53:20.684Z,95426.09
2022-08-20T04:55:54.553Z,95420.28
2022-08-20T04:58:24.695Z,95428.22
2022-08-20T05:00:55.386Z,95427.13
2022-08-20T05:03:25.060Z,95418.69
2022-08-20T05:05:53.620Z,95420.28
2022-08-20T05:08:23.088Z,95420.78
2022-08-20T05:11:06.746Z,95414.97
2022-08-20T05:13:42.861Z,95426.59
2022-08-20T05:16:11.370Z,95424.75
2022-08-20T05:18:39.347Z,95441.69
2022-08-20T05:21:07.609Z,95435.31
2022-08-20T05:23:42.919Z,95446.69
2022-08-20T05:26:13.169Z,95436.91
2022-08-20T05:28:54.162Z,95441.69
2022-08-20T05:31:30.877Z,95442.50
2022-08-20T05:34:01.827Z,95447.25
2022-08-20T05:36:30.140Z,95450.94
2022-08-20T05:38:58.189Z,95448.81
2022-08-20T05:41:30.258Z,95452.00
2022-08-20T05:44:01.108Z,95453.59
2022-08-20T05:46:29.573Z,95458.34
2022-08-20T05:48:59.584Z,95456.22
2022-08-20T05:51:28.359Z,95460.97
2022-08-20T05:53:58.023Z,95459.94
2022-08-20T05:56:31.244Z,95455.69
2022-08-20T05:59:02.587Z,95453.06
2022-08-20T06:01:31.510Z,95457.28
2022-08-20T06:04:17.682Z,95463.09
2022-08-20T06:06:47.262Z,95465.19
2022-08-20T06:09:30.596Z,95466.25
2022-08-20T06:12:02.373Z,95462.03
2022-08-20T06:14:31.013Z,95461.47
2022-08-20T06:17:04.880Z,95468.63
2022-08-20T06:19:34.141Z,95466.75
2022-08-20T06:22:08.629Z,95470.44
2022-08-20T06:24:48.239Z,95468.31
2022-08-20T06:27:18.021Z,95464.66
2022-08-20T06:29:46.373Z,95472.03
2022-08-20T06:32:15.680Z,95471.00
2022-08-20T06:34:49.851Z,95472.06
2022-08-20T06:37:21.609Z,95477.88
2022-08-20T06:39:49.648Z,95481.03
2022-08-20T06:42:20.674Z,95476.81
2022-08-20T06:44:49.571Z,95476.31
2022-08-20T06:47:18.639Z,95484.78
2022-08-20T06:49:47.587Z,95472.59
2022-08-20T06:52:17.137Z,95479.72
2022-08-20T06:54:45.348Z,95485.28
2022-08-20T06:57:13.927Z,95486.63
2022-08-20T06:59:43.301Z,95486.84
2022-08-20T07:02:11.409Z,95484.72
2022-08-20T07:04:39.386Z,95484.41
2022-08-20T07:07:07.474Z,95491.31
2022-08-20T07:09:35.503Z,95483.63
2022-08-20T07:12:03.777Z,95482.53
2022-08-20T07:14:31.787Z,95493.13
2022-08-20T07:17:03.568Z,95499.53
2022-08-20T07:19:31.769Z,95501.66
2022-08-20T07:21:59.937Z,95496.09
2022-08-20T07:24:33.312Z,95497.94
2022-08-20T07:27:22.343Z,95501.94
2022-08-20T07:30:12.729Z,95500.06
2022-08-20T07:32:45.432Z,95507.75
2022-08-20T07:35:17.444Z,95500.31
2022-08-20T07:37:48.380Z,95497.41
2022-08-20T07:40:25.741Z,95506.41
2022-08-20T07:42:55.147Z,95505.88
2022-08-20T07:45:24.442Z,95506.91
2022-08-20T07:47:54.282Z,95500.03
2022-08-20T07:50:25.037Z,95503.19
2022-08-20T07:52:53.904Z,95510.91
2022-08-20T07:55:22.986Z,95514.69
2022-08-20T07:57:51.932Z,95516.03
2022-08-20T08:00:22.128Z,95516.56
2022-08-20T08:02:50.228Z,95510.75
2022-08-20T08:05:19.875Z,95515.25
2022-08-20T08:07:47.978Z,95512.84
2022-08-20T08:10:19.723Z,95511.28
2022-08-20T08:12:52.071Z,95514.97
2022-08-20T08:15:25.483Z,95517.34
2022-08-20T08:17:55.742Z,95522.91
2022-08-20T08:20:25.188Z,95519.72
2022-08-20T08:22:53.806Z,95515.72
2022-08-20T08:25:22.206Z,95515.44
2022-08-20T08:27:50.367Z,95520.72
2022-08-20T08:30:18.550Z,95517.56
2022-08-20T08:33:04.206Z,95519.13
2022-08-20T08:35:34.321Z,95516.50
2022-08-20T08:38:02.791Z,95519.69
2022-08-20T08:40:32.127Z,95518.56
2022-08-20T08:43:04.121Z,95513.78
2022-08-20T08:45:43.769Z,95518.59
2022-08-20T08:48:18.268Z,95525.97
2022-08-20T08:50:54.642Z,95523.84
2022-08-20T08:53:27.717Z,95520.47
2022-08-20T08:55:55.922Z,95529.25
2022-08-20T08:58:24.171Z,95525.53
2022-08-20T09:00:56.083Z,95531.38
2022-08-20T09:03:29.399Z,95531.38
2022-08-20T09:06:06.327Z,95518.13
2022-08-20T09:08:44.937Z,95522.06
2022-08-20T09:11:12.923Z,95528.19
2022-08-20T09:13:40.872Z,95525.00
2022-08-20T09:16:08.838Z,95535.00
2022-08-20T09:18:36.898Z,95525.41
2022-08-20T09:21:07.032Z,95521.59
2022-08-20T09:23:35.781Z,95520.75
2022-08-20T09:26:03.717Z,95527.84
2022-08-20T09:28:32.454Z,95519.59
2022-08-20T09:31:03.382Z,95523.00
2022-08-20T09:33:32.714Z,95523.00
2022-08-20T09:36:00.821Z,95517.16
2022-08-20T09:38:30.159Z,95512.09
2022-08-20T09:40:58.192Z,95517.31
2022-08-20T09:43:26.482Z,95513.78
2022-08-20T09:45:54.405Z,95509.06
2022-08-20T09:48:31.995Z,95508.75
2022-08-20T09:51:00.415Z,95507.47
2022-08-20T09:53:30.984Z,95510.28
2022-08-20T09:56:00.179Z,95509.38
2022-08-20T09:58:35.790Z,95499.91
2022-08-20T10:01:13.870Z,95501.09
2022-08-20T10:03:42.625Z,95504.91
2022-08-20T10:06:11.436Z,95504.56
2022-08-20T10:08:40.926Z,95506.75
2022-08-20T10:11:08.877Z,95511.00
2022-08-20T10:13:36.861Z,95512.59
2022-08-20T10:16:05.690Z,95501.69
2022-08-20T10:18:33.792Z,95508.78
2022-08-20T10:21:01.715Z,95504.75
2022-08-20T10:23:29.815Z,95503.97
2022-08-20T10:25:59.226Z,95486.88
2022-08-20T10:28:27.174Z,95494.19
2022-08-20T10:30:55.103Z,95493.00
2022-08-20T10:33:23.124Z,95491.84
2022-08-20T10:35:51.069Z,95487.94
2022-08-20T10:38:22.741Z,95472.22
2022-08-20T10:40:52.158Z,95485.44
2022-08-20T10:43:22.046Z,95483.00
2022-08-20T10:45:50.066Z,95478.53
2022-08-20T10:48:21.408Z,95484.06
2022-08-20T10:50:49.980Z,95480.25
2022-08-20T10:53:18.013Z,95471.78
2022-08-20T10:55:46.429Z,95480.69
2022-08-20T10:58:14.622Z,95480.34
2022-08-20T11:00:45.780Z,95475.81
2022-08-20T11:03:13.757Z,95470.06
2022-08-20T11:05:41.781Z,95481.09
2022-08-20T11:08:09.884Z,95480.47
2022-08-20T11:10:38.916Z,95465.53
2022-08-20T11:13:08.649Z,95470.28
2022-08-20T11:15:39.659Z,95466.56
2022-08-20T11:18:10.560Z,95471.78
2022-08-20T11:20:38.584Z,95463.84
2022-08-20T11:23:06.774Z,95462.31
2022-08-20T11:25:34.788Z,95459.13
2022-08-20T11:28:03.493Z,95460.00
2022-08-20T11:30:34.285Z,95463.31
2022-08-20T11:33:03.752Z,95456.38
2022-08-20T11:35:48.576Z,95453.56
2022-08-20T11:38:18.040Z,95451.44
2022-08-20T11:40:46.670Z,95448.47
2022-08-20T11:43:16.274Z,95447.34
2022-08-20T11:45:45.500Z,95452.94
2022-08-20T11:48:13.514Z,95445.47
2022-08-20T11:50:43.029Z,95451.50
2022-08-20T11:53:11.169Z,95436.97
2022-08-20T11:55:39.560Z,95440.19
2022-08-20T11:58:08.236Z,95440.00
2022-08-20T12:00:36.896Z,95437.31
2022-08-20T12:03:08.727Z,95432.81
2022-08-20T12:05:37.674Z,95435.56
2022-08-20T12:08:08.403Z,95426.47
2022-08-20T12:10:37.076Z,95435.34
2022-08-20T12:13:05.295Z,95437.75
2022-08-20T12:15:33.397Z,95435.47
2022-08-20T12:18:01.636Z,95438.16
2022-08-20T12:20:29.588Z,95428.50
2022-08-20T12:22:58.951Z,95431.66
2022-08-20T12:25:28.772Z,95427.50
2022-08-20T12:27:56.821Z,95428.09
2022-08-20T12:30:25.609Z,95424.94
2022-08-20T12:32:53.608Z,95425.06
2022-08-20T12:35:21.847Z,95421.13
2022-08-20T12:37:50.005Z,95420.03
2022-08-20T12:40:24.458Z,95420.75
2022-08-20T12:43:00.855Z,95412.53
2022-08-20T12:45:28.819Z,95408.63
2022-08-20T12:48:03.231Z,95406.38
2022-08-20T12:50:32.137Z,95407.97
2022-08-20T12:53:00.499Z,95410.47
2022-08-20T12:55:29.726Z,95404.66
2022-08-20T12:58:00.347Z,95418.28
2022-08-20T13:00:32.800Z,95414.50
2022-08-20T13:03:03.828Z,95418.03
2022-08-20T13:05:33.084Z,95416.56
2022-08-20T13:08:01.325Z,95412.13
2022-08-20T13:10:31.325Z,95413.66
2022-08-20T13:13:01.888Z,95415.22
2022-08-20T13:15:32.823Z,95417.28
2022-08-20T13:18:04.672Z,95418.63
2022-08-20T13:20:34.415Z,95405.09
2022-08-20T13:23:03.881Z,95409.53
2022-08-20T13:25:32.273Z,95399.81
2022-08-20T13:28:02.317Z,95401.84
2022-08-20T13:30:32.904Z,95398.88
2022-08-20T13:33:00.866Z,95396.22
2022-08-20T13:35:28.864Z,95399.38
2022-08-20T13:37:57.006Z,95391.59
2022-08-20T13:40:25.929Z,95386.25
2022-08-20T13:42:53.943Z,95400.69
2022-08-20T13:45:22.000Z,95397.91
2022-08-20T13:47:54.081Z,95401.06
2022-08-20T13:50:25.258Z,95401.06
2022-08-20T13:52:53.553Z,95404.06
2022-08-20T13:55:23.403Z,95406.03
2022-08-20T13:57:52.378Z,95403.66
2022-08-20T14:00:26.416Z,95410.75
2022-08-20T14:03:02.380Z,95404.44
2022-08-20T14:05:31.711Z,95408.78
2022-08-20T14:08:07.961Z,95393.84
2022-08-20T14:10:36.565Z,95394.53
2022-08-20T14:13:06.770Z,95398.44
2022-08-20T14:15:35.566Z,95394.69
2022-08-20T14:18:05.466Z,95391.41
2022-08-20T14:20:35.466Z,95386.59
2022-08-20T14:23:06.999Z,95385.53
2022-08-20T14:25:35.514Z,95380.56
2022-08-20T14:28:11.708Z,95386.69
2022-08-20T14:30:39.996Z,95377.28
2022-08-20T14:33:09.483Z,95381.50
2022-08-20T14:35:37.566Z,95384.91
2022-08-20T14:38:06.035Z,95382.63
2022-08-20T14:40:34.633Z,95375.56
2022-08-20T14:43:03.387Z,95370.19
2022-08-20T14:45:31.363Z,95370.38
2022-08-20T14:48:00.245Z,95360.66
2022-08-20T14:50:32.166Z,95370.72
2022-08-20T14:53:00.885Z,95362.34
2022-08-20T14:55:31.175Z,95361.41
2022-08-20T14:57:59.604Z,95369.28
2022-08-20T15:00:30.773Z,95368.03
2022-08-20T15:02:59.108Z,95361.34
2022-08-20T15:05:27.717Z,95362.41
2022-08-20T15:07:59.590Z,95364.44
2022-08-20T15:10:30.233Z,95357.91
2022-08-20T15:12:58.719Z,95356.66
2022-08-20T15:15:27.286Z,95357.09
2022-08-20T15:17:57.668Z,95352.06
2022-08-20T15:20:28.598Z,95351.44
2022-08-20T15:22:56.902Z,95355.13
2022-08-20T15:25:36.770Z,95356.03
2022-08-20T15:28:08.229Z,95355.00
2022-08-20T15:30:37.564Z,95356.72
2022-08-20T15:33:05.635Z,95352.34
2022-08-20T15:35:33.730Z,95348.69
2022-08-20T15:38:01.777Z,95351.59
2022-08-20T15:40:33.220Z,95356.38
2022-08-20T15:43:03.625Z,95352.09
2022-08-20T15:45:32.092Z,95345.06
2022-08-20T15:48:09.167Z,95349.47
2022-08-20T15:51:03.051Z,95353.56
2022-08-20T15:53:38.214Z,95345.81
2022-08-20T15:56:16.493Z,95343.78
2022-08-20T15:58:55.043Z,95345.50
2022-08-20T16:01:33.657Z,95339.91
2022-08-20T16:04:21.815Z,95347.81
2022-08-20T16:06:52.977Z,95342.81
2022-08-20T16:09:39.293Z,95345.16
2022-08-20T16:12:12.164Z,95353.41
2022-08-20T16:14:42.216Z,95346.13
2022-08-20T16:17:13.217Z,95354.16
2022-08-20T16:19:49.784Z,95351.63
2022-08-20T16:22:19.482Z,95352.25
2022-08-20T16:24:47.823Z,95356.41
2022-08-20T16:27:28.399Z,95357.00
2022-08-20T16:30:04.163Z,95353.84
2022-08-20T16:32:41.270Z,95362.66
2022-08-20T16:35:29.657Z,95344.31
2022-08-20T16:38:05.025Z,95352.16
2022-08-20T16:40:36.728Z,95347.13
2022-08-20T16:43:08.292Z,95351.47
2022-08-20T16:45:43.466Z,95347.97
2022-08-20T16:48:13.869Z,95338.72
2022-08-20T16:50:59.003Z,95345.56
2022-08-20T16:53:28.402Z,95342.81
2022-08-20T16:55:58.584Z,95334.16
2022-08-20T16:58:27.896Z,95336.38
2022-08-20T17:01:08.747Z,95334.22
2022-08-20T17:03:40.670Z,95338.41
2022-08-20T17:06:18.694Z,95331.00
2022-08-20T17:08:51.211Z,95329.34
2022-08-20T17:11:26.211Z,95329.22
2022-08-20T17:14:07.499Z,95330.44
2022-08-20T17:16:38.555Z,95323.84
2022-08-20T17:19:18.550Z,95312.97
2022-08-20T17:21:50.171Z,95322.25
2022-08-20T17:24:23.847Z,95322.66
2022-08-20T17:26:59.458Z,95329.00
2022-08-20T17:29:31.815Z,95322.00
2022-08-20T17:32:02.329Z,95328.69
2022-08-20T17:34:32.713Z,95327.44
2022-08-20T17:37:05.704Z,95333.34
2022-08-20T17:39:34.108Z,95326.19
2022-08-20T17:42:08.859Z,95330.41
2022-08-20T17:44:46.451Z,95326.72
2022-08-20T17:47:17.611Z,95325.44
2022-08-20T17:49:54.978Z,95330.59
2022-08-20T17:52:35.795Z,95330.56
2022-08-20T17:55:04.571Z,95322.91
2022-08-20T17:57:38.416Z,95327.06
2022-08-20T18:00:14.170Z,95336.53
2022-08-20T18:02:42.492Z,95327.63
2022-08-20T18:05:15.531Z,95332.66
2022-08-20T18:07:54.172Z,95326.66
2022-08-20T18:10:25.816Z,95333.00
2022-08-20T18:13:17.925Z,95329.78
2022-08-20T18:15:51.904Z,95326.47
2022-08-20T18:18:29.370Z,95333.72
2022-08-20T18:21:15.861Z,95330.06
2022-08-20T18:23:48.596Z,95333.97
2022-08-20T18:26:22.363Z,95337.03
2022-08-20T18:28:54.297Z,95336.31
2022-08-20T18:31:32.397Z,95342.06
2022-08-20T18:34:11.235Z,95340.63
2022-08-20T18:36:39.216Z,95336.50
2022-08-20T18:39:09.687Z,95340.44
2022-08-20T18:41:39.845Z,95346.06
2022-08-20T18:44:10.760Z,95348.47
2022-08-20T18:46:52.827Z,95345.31
2022-08-20T18:49:30.241Z,95347.13
2022-08-20T18:51:59.380Z,95355.34
2022-08-20T18:54:30.772Z,95356.41
2022-08-20T18:57:08.486Z,95353.50
2022-08-20T18:59:43.890Z,95349.38
2022-08-20T19:02:22.652Z,95347.97
2022-08-20T19:05:02.018Z,95343.84
2022-08-20T19:07:47.911Z,95350.03
2022-08-20T19:10:40.809Z,95352.91
2022-08-20T19:13:20.573Z,95350.81
2022-08-20T19:15:51.780Z,95353.50
2022-08-20T19:18:28.346Z,95359.41
2022-08-20T19:20:58.802Z,95348.25
2022-08-20T19:23:30.147Z,95357.44
2022-08-20T19:26:00.891Z,95349.53
2022-08-20T19:28:32.231Z,95358.81
2022-08-20T19:31:11.043Z,95364.50
2022-08-20T19:33:44.018Z,95362.16
2022-08-20T19:36:16.312Z,95359.78
2022-08-20T19:38:49.940Z,95356.03
2022-08-20T19:41:30.887Z,95349.31
2022-08-20T19:43:59.803Z,95348.81
2022-08-20T19:46:32.284Z,95355.22
2022-08-20T19:49:20.639Z,95361.72
2022-08-20T19:51:58.425Z,95364.44
2022-08-20T19:54:29.463Z,95358.72
2022-08-20T19:56:58.783Z,95359.06
2022-08-20T19:59:27.123Z,95358.28
2022-08-20T20:02:00.341Z,95355.31
2022-08-20T20:04:37.338Z,95362.19
2022-08-20T20:07:09.811Z,95364.22
2022-08-20T20:09:42.460Z,95367.66
2022-08-20T20:12:22.848Z,95367.66
2022-08-20T20:14:52.644Z,95366.09
2022-08-20T20:17:23.693Z,95370.91
2022-08-20T20:19:59.171Z,95364.22
2022-08-20T20:22:29.621Z,95362.81
2022-08-20T20:25:06.209Z,95360.50
2022-08-20T20:27:36.538Z,95367.84
2022-08-20T20:30:13.449Z,95359.56
2022-08-20T20:32:45.350Z,95357.69
2022-08-20T20:35:26.655Z,95352.47
2022-08-20T20:38:00.451Z,95355.63
2022-08-20T20:40:33.956Z,95358.84
2022-08-20T20:43:06.981Z,95364.03
2022-08-20T20:45:36.679Z,95354.84
2022-08-20T20:48:18.102Z,95353.31
2022-08-20T20:50:48.519Z,95354.09
2022-08-20T20:53:47.430Z,95354.34
2022-08-20T20:56:27.929Z,95362.38
2022-08-20T20:58:56.394Z,95354.34
2022-08-20T21:01:45.693Z,95356.00
2022-08-20T21:04:12.655Z,95350.66
2022-08-20T21:06:42.007Z,95357.59
2022-08-20T21:09:10.230Z,95359.75
2022-08-20T21:11:38.324Z,95358.75
2022-08-20T21:14:06.331Z,95362.84
2022-08-20T21:16:34.287Z,95365.91
2022-08-20T21:19:03.271Z,95359.09
2022-08-20T21:21:31.256Z,95360.50
2022-08-20T21:24:00.559Z,95369.41
2022-08-20T21:26:29.583Z,95367.75
2022-08-20T21:28:57.623Z,95369.91
2022-08-20T21:31:31.513Z,95367.31
2022-08-20T21:33:59.523Z,95359.84
2022-08-20T21:36:27.708Z,95363.13
2022-08-20T21:38:55.809Z,95364.59
2022-08-20T21:41:29.890Z,95367.19
2022-08-20T21:43:58.641Z,95364.00
2022-08-20T21:46:28.750Z,95366.75
2022-08-20T21:48:57.429Z,95367.81
2022-08-20T21:51:25.425Z,95367.75
2022-08-20T21:53:53.485Z,95365.59
2022-08-20T21:56:22.571Z,95369.31
2022-08-20T21:58:53.157Z,95361.00
2022-08-20T22:01:24.013Z,95369.69
2022-08-20T22:03:52.174Z,95369.25
2022-08-20T22:06:20.838Z,95364.28
2022-08-20T22:08:48.852Z,95366.28
2022-08-20T22:11:17.513Z,95357.50
2022-08-20T22:13:46.633Z,95360.09
2022-08-20T22:16:18.597Z,95353.13
2022-08-20T22:18:47.166Z,95357.31
2022-08-20T22:21:19.548Z,95354.59
2022-08-20T22:23:48.028Z,95359.41
2022-08-20T22:26:17.265Z,95355.78
2022-08-20T22:28:45.628Z,95359.53
2022-08-20T22:31:24.232Z,95359.06
2022-08-20T22:33:52.309Z,95361.22
2022-08-20T22:36:20.362Z,95364.94
2022-08-20T22:38:54.457Z,95363.13
2022-08-20T22:41:23.146Z,95358.13
2022-08-20T22:43:56.533Z,95348.06
2022-08-20T22:46:28.583Z,95348.06
2022-08-20T22:48:57.687Z,95352.03
2022-08-20T22:51:30.242Z,95347.75
2022-08-20T22:53:58.825Z,95348.53
2022-08-20T22:56:27.145Z,95350.22
2022-08-20T22:58:59.409Z,95345.50
2022-08-20T23:01:29.875Z,95341.78
2022-08-20T23:04:03.408Z,95340.19
2022-08-20T23:06:31.962Z,95338.84
2022-08-20T23:09:00.213Z,95337.00
2022-08-20T23:11:28.197Z,95331.75
2022-08-20T23:13:57.013Z,95330.16
2022-08-20T23:16:25.526Z,95329.13
2022-08-20T23:18:55.343Z,95329.69
2022-08-20T23:21:23.397Z,95326.75
2022-08-20T23:23:51.472Z,95328.09
2022-08-20T23:26:22.714Z,95328.66
2022-08-20T23:28:50.764Z,95329.75
2022-08-20T23:31:18.989Z,95323.44
2022-08-20T23:33:47.070Z,95331.09
2022-08-20T23:36:19.567Z,95326.03
2022-08-20T23:38:47.607Z,95324.44
2022-08-20T23:41:15.653Z,95328.16
2022-08-20T23:43:44.120Z,95323.97
2022-08-20T23:46:12.733Z,95314.97
2022-08-20T23:48:40.886Z,95321.84
2022-08-20T23:51:08.878Z,95319.22
2022-08-20T23:53:38.781Z,95317.13
2022-08-20T23:56:07.093Z,95315.50
2022-08-20T23:58:35.120Z,95310.22
